sensor_id;sensor_type;location;lat;lon;timestamp;P1;durP1;ratioP1;P2;durP2;ratioP2
16197;SDS011;8206;51.440;6.914;2023-11-21T00:01:43;2.87;;;2.67;;
16197;SDS011;8206;51.440;6.914;2023-11-21T00:04:11;3.10;;;2.70;;
16197;SDS011;8206;51.440;6.914;2023-11-21T00:06:38;3.63;;;3.43;;
16197;SDS011;8206;51.440;6.914;2023-11-21T00:09:05;2.70;;;2.60;;
16197;SDS011;8206;51.440;6.914;2023-11-21T00:11:33;2.13;;;2.13;;
16197;SDS011;8206;51.440;6.914;2023-11-21T00:14:00;2.70;;;2.50;;
16197;SDS011;8206;51.440;6.914;2023-11-21T00:16:28;2.93;;;1.83;;
16197;SDS011;8206;51.440;6.914;2023-11-21T00:18:54;3.20;;;3.10;;
16197;SDS011;8206;51.440;6.914;2023-11-21T00:21:22;3.53;;;2.90;;
16197;SDS011;8206;51.440;6.914;2023-11-21T00:23:49;3.10;;;2.03;;
16197;SDS011;8206;51.440;6.914;2023-11-21T00:26:16;4.87;;;2.60;;
16197;SDS011;8206;51.440;6.914;2023-11-21T00:28:43;3.23;;;2.90;;
16197;SDS011;8206;51.440;6.914;2023-11-21T00:31:10;7.27;;;3.73;;
16197;SDS011;8206;51.440;6.914;2023-11-21T00:33:37;2.27;;;2.10;;
16197;SDS011;8206;51.440;6.914;2023-11-21T00:36:04;3.10;;;2.53;;
16197;SDS011;8206;51.440;6.914;2023-11-21T00:38:35;2.03;;;1.93;;
16197;SDS011;8206;51.440;6.914;2023-11-21T00:41:05;2.33;;;2.23;;
16197;SDS011;8206;51.440;6.914;2023-11-21T00:43:31;6.00;;;3.20;;
16197;SDS011;8206;51.440;6.914;2023-11-21T00:45:58;1.60;;;1.50;;
16197;SDS011;8206;51.440;6.914;2023-11-21T00:48:25;2.17;;;2.07;;
16197;SDS011;8206;51.440;6.914;2023-11-21T00:50:52;1.10;;;1.10;;
16197;SDS011;8206;51.440;6.914;2023-11-21T00:53:18;3.70;;;2.13;;
16197;SDS011;8206;51.440;6.914;2023-11-21T00:55:46;2.30;;;1.73;;
16197;SDS011;8206;51.440;6.914;2023-11-21T00:58:13;3.40;;;3.17;;
16197;SDS011;8206;51.440;6.914;2023-11-21T01:00:39;4.47;;;1.93;;
16197;SDS011;8206;51.440;6.914;2023-11-21T01:03:06;7.20;;;3.40;;
16197;SDS011;8206;51.440;6.914;2023-11-21T01:05:33;1.10;;;1.10;;
16197;SDS011;8206;51.440;6.914;2023-11-21T01:08:00;4.43;;;3.60;;
16197;SDS011;8206;51.440;6.914;2023-11-21T01:10:27;1.40;;;1.40;;
16197;SDS011;8206;51.440;6.914;2023-11-21T01:12:55;2.23;;;2.10;;
16197;SDS011;8206;51.440;6.914;2023-11-21T01:15:23;9.90;;;2.47;;
16197;SDS011;8206;51.440;6.914;2023-11-21T01:17:51;1.83;;;1.73;;
16197;SDS011;8206;51.440;6.914;2023-11-21T01:20:17;16.77;;;1.40;;
16197;SDS011;8206;51.440;6.914;2023-11-21T01:22:44;2.17;;;1.97;;
16197;SDS011;8206;51.440;6.914;2023-11-21T01:25:14;2.47;;;2.27;;
16197;SDS011;8206;51.440;6.914;2023-11-21T01:27:41;2.93;;;2.13;;
16197;SDS011;8206;51.440;6.914;2023-11-21T01:30:10;1.40;;;1.40;;
16197;SDS011;8206;51.440;6.914;2023-11-21T01:32:37;6.97;;;2.83;;
16197;SDS011;8206;51.440;6.914;2023-11-21T01:35:04;2.43;;;2.33;;
16197;SDS011;8206;51.440;6.914;2023-11-21T01:37:31;1.60;;;1.50;;
16197;SDS011;8206;51.440;6.914;2023-11-21T01:39:58;2.13;;;2.07;;
16197;SDS011;8206;51.440;6.914;2023-11-21T01:42:26;2.27;;;2.17;;
16197;SDS011;8206;51.440;6.914;2023-11-21T01:44:54;2.27;;;1.90;;
16197;SDS011;8206;51.440;6.914;2023-11-21T01:47:22;1.20;;;1.10;;
16197;SDS011;8206;51.440;6.914;2023-11-21T01:49:49;12.07;;;3.60;;
16197;SDS011;8206;51.440;6.914;2023-11-21T01:52:16;2.30;;;2.17;;
16197;SDS011;8206;51.440;6.914;2023-11-21T01:54:43;1.03;;;1.03;;
16197;SDS011;8206;51.440;6.914;2023-11-21T01:57:09;2.93;;;2.73;;
16197;SDS011;8206;51.440;6.914;2023-11-21T01:59:36;1.83;;;1.73;;
16197;SDS011;8206;51.440;6.914;2023-11-21T02:02:04;1.93;;;1.80;;
16197;SDS011;8206;51.440;6.914;2023-11-21T02:04:33;2.13;;;1.80;;
16197;SDS011;8206;51.440;6.914;2023-11-21T02:07:01;0.97;;;0.97;;
16197;SDS011;8206;51.440;6.914;2023-11-21T02:09:30;3.10;;;2.80;;
16197;SDS011;8206;51.440;6.914;2023-11-21T02:11:58;1.60;;;1.50;;
16197;SDS011;8206;51.440;6.914;2023-11-21T02:14:25;2.27;;;2.17;;
16197;SDS011;8206;51.440;6.914;2023-11-21T02:16:53;2.20;;;1.97;;
16197;SDS011;8206;51.440;6.914;2023-11-21T02:19:21;1.90;;;1.80;;
16197;SDS011;8206;51.440;6.914;2023-11-21T02:21:52;3.00;;;2.80;;
16197;SDS011;8206;51.440;6.914;2023-11-21T02:24:21;2.13;;;1.93;;
16197;SDS011;8206;51.440;6.914;2023-11-21T02:26:48;6.47;;;3.10;;
16197;SDS011;8206;51.440;6.914;2023-11-21T02:29:16;1.63;;;1.53;;
16197;SDS011;8206;51.440;6.914;2023-11-21T02:31:43;2.63;;;2.33;;
16197;SDS011;8206;51.440;6.914;2023-11-21T02:34:13;4.50;;;2.37;;
16197;SDS011;8206;51.440;6.914;2023-11-21T02:36:40;2.63;;;1.43;;
16197;SDS011;8206;51.440;6.914;2023-11-21T02:39:08;3.30;;;2.77;;
16197;SDS011;8206;51.440;6.914;2023-11-21T02:41:37;2.13;;;1.97;;
16197;SDS011;8206;51.440;6.914;2023-11-21T02:44:04;4.97;;;2.40;;
16197;SDS011;8206;51.440;6.914;2023-11-21T02:46:32;5.37;;;2.17;;
16197;SDS011;8206;51.440;6.914;2023-11-21T02:48:59;2.57;;;2.13;;
16197;SDS011;8206;51.440;6.914;2023-11-21T02:51:25;2.33;;;2.13;;
16197;SDS011;8206;51.440;6.914;2023-11-21T02:53:52;2.30;;;2.20;;
16197;SDS011;8206;51.440;6.914;2023-11-21T02:56:19;9.17;;;1.83;;
16197;SDS011;8206;51.440;6.914;2023-11-21T02:58:47;1.47;;;1.37;;
16197;SDS011;8206;51.440;6.914;2023-11-21T03:01:14;4.97;;;3.00;;
16197;SDS011;8206;51.440;6.914;2023-11-21T03:03:42;1.93;;;1.83;;
16197;SDS011;8206;51.440;6.914;2023-11-21T03:06:08;4.10;;;3.70;;
16197;SDS011;8206;51.440;6.914;2023-11-21T03:08:35;2.00;;;1.87;;
16197;SDS011;8206;51.440;6.914;2023-11-21T03:11:02;5.80;;;2.40;;
16197;SDS011;8206;51.440;6.914;2023-11-21T03:13:29;2.30;;;2.20;;
16197;SDS011;8206;51.440;6.914;2023-11-21T03:15:57;2.27;;;2.17;;
16197;SDS011;8206;51.440;6.914;2023-11-21T03:18:23;3.27;;;2.97;;
16197;SDS011;8206;51.440;6.914;2023-11-21T03:20:51;1.90;;;1.80;;
16197;SDS011;8206;51.440;6.914;2023-11-21T03:23:18;3.23;;;3.03;;
16197;SDS011;8206;51.440;6.914;2023-11-21T03:25:45;2.27;;;2.17;;
16197;SDS011;8206;51.440;6.914;2023-11-21T03:28:11;1.57;;;1.50;;
16197;SDS011;8206;51.440;6.914;2023-11-21T03:30:38;3.67;;;3.20;;
16197;SDS011;8206;51.440;6.914;2023-11-21T03:33:06;2.23;;;2.13;;
16197;SDS011;8206;51.440;6.914;2023-11-21T03:35:33;1.80;;;1.77;;
16197;SDS011;8206;51.440;6.914;2023-11-21T03:38:00;1.63;;;1.40;;
16197;SDS011;8206;51.440;6.914;2023-11-21T03:40:26;3.73;;;2.33;;
16197;SDS011;8206;51.440;6.914;2023-11-21T03:42:53;2.13;;;1.93;;
16197;SDS011;8206;51.440;6.914;2023-11-21T03:45:20;1.73;;;1.67;;
16197;SDS011;8206;51.440;6.914;2023-11-21T03:47:46;6.33;;;3.73;;
16197;SDS011;8206;51.440;6.914;2023-11-21T03:50:14;3.80;;;3.50;;
16197;SDS011;8206;51.440;6.914;2023-11-21T03:52:41;2.63;;;2.47;;
16197;SDS011;8206;51.440;6.914;2023-11-21T03:55:08;1.87;;;1.77;;
16197;SDS011;8206;51.440;6.914;2023-11-21T03:57:36;1.97;;;1.80;;
16197;SDS011;8206;51.440;6.914;2023-11-21T04:00:03;2.43;;;2.23;;
16197;SDS011;8206;51.440;6.914;2023-11-21T04:02:33;3.27;;;2.53;;
16197;SDS011;8206;51.440;6.914;2023-11-21T04:05:00;2.43;;;2.33;;
16197;SDS011;8206;51.440;6.914;2023-11-21T04:07:29;2.80;;;2.60;;
16197;SDS011;8206;51.440;6.914;2023-11-21T04:09:56;3.83;;;3.63;;
16197;SDS011;8206;51.440;6.914;2023-11-21T04:12:22;2.60;;;2.50;;
16197;SDS011;8206;51.440;6.914;2023-11-21T04:14:49;3.50;;;3.30;;
16197;SDS011;8206;51.440;6.914;2023-11-21T04:17:17;1.40;;;1.30;;
16197;SDS011;8206;51.440;6.914;2023-11-21T04:19:44;6.97;;;3.23;;
16197;SDS011;8206;51.440;6.914;2023-11-21T04:22:11;12.57;;;2.30;;
16197;SDS011;8206;51.440;6.914;2023-11-21T04:24:39;2.17;;;2.17;;
16197;SDS011;8206;51.440;6.914;2023-11-21T04:27:05;1.43;;;1.30;;
16197;SDS011;8206;51.440;6.914;2023-11-21T04:29:32;2.17;;;2.00;;
16197;SDS011;8206;51.440;6.914;2023-11-21T04:32:00;4.33;;;2.73;;
16197;SDS011;8206;51.440;6.914;2023-11-21T04:34:27;2.73;;;2.63;;
16197;SDS011;8206;51.440;6.914;2023-11-21T04:36:55;2.10;;;2.00;;
16197;SDS011;8206;51.440;6.914;2023-11-21T04:39:22;2.60;;;2.47;;
16197;SDS011;8206;51.440;6.914;2023-11-21T04:41:51;2.40;;;2.30;;
16197;SDS011;8206;51.440;6.914;2023-11-21T04:44:17;2.17;;;2.07;;
16197;SDS011;8206;51.440;6.914;2023-11-21T04:46:44;2.30;;;2.20;;
16197;SDS011;8206;51.440;6.914;2023-11-21T04:49:11;3.23;;;2.70;;
16197;SDS011;8206;51.440;6.914;2023-11-21T04:51:37;3.03;;;2.83;;
16197;SDS011;8206;51.440;6.914;2023-11-21T04:54:04;3.03;;;2.33;;
16197;SDS011;8206;51.440;6.914;2023-11-21T04:56:31;5.03;;;3.07;;
16197;SDS011;8206;51.440;6.914;2023-11-21T04:58:59;2.07;;;1.83;;
16197;SDS011;8206;51.440;6.914;2023-11-21T05:01:26;5.87;;;4.43;;
16197;SDS011;8206;51.440;6.914;2023-11-21T05:03:53;3.33;;;3.00;;
16197;SDS011;8206;51.440;6.914;2023-11-21T05:06:20;3.07;;;2.67;;
16197;SDS011;8206;51.440;6.914;2023-11-21T05:08:47;3.70;;;3.50;;
16197;SDS011;8206;51.440;6.914;2023-11-21T05:11:22;5.83;;;3.20;;
16197;SDS011;8206;51.440;6.914;2023-11-21T05:13:50;6.03;;;2.90;;
16197;SDS011;8206;51.440;6.914;2023-11-21T05:16:18;7.43;;;3.23;;
16197;SDS011;8206;51.440;6.914;2023-11-21T05:18:45;4.13;;;3.73;;
16197;SDS011;8206;51.440;6.914;2023-11-21T05:21:11;15.17;;;3.23;;
16197;SDS011;8206;51.440;6.914;2023-11-21T05:23:38;9.77;;;3.57;;
16197;SDS011;8206;51.440;6.914;2023-11-21T05:26:05;4.37;;;4.17;;
16197;SDS011;8206;51.440;6.914;2023-11-21T05:28:32;4.13;;;3.80;;
16197;SDS011;8206;51.440;6.914;2023-11-21T05:30:59;12.00;;;3.13;;
16197;SDS011;8206;51.440;6.914;2023-11-21T05:33:27;4.93;;;4.50;;
16197;SDS011;8206;51.440;6.914;2023-11-21T05:35:54;15.33;;;5.50;;
16197;SDS011;8206;51.440;6.914;2023-11-21T05:38:21;3.90;;;3.40;;
16197;SDS011;8206;51.440;6.914;2023-11-21T05:40:48;14.30;;;3.40;;
16197;SDS011;8206;51.440;6.914;2023-11-21T05:43:14;3.80;;;3.27;;
16197;SDS011;8206;51.440;6.914;2023-11-21T05:45:41;3.27;;;3.07;;
16197;SDS011;8206;51.440;6.914;2023-11-21T05:48:08;4.00;;;3.67;;
16197;SDS011;8206;51.440;6.914;2023-11-21T05:50:36;3.53;;;3.33;;
16197;SDS011;8206;51.440;6.914;2023-11-21T05:53:03;4.10;;;3.70;;
16197;SDS011;8206;51.440;6.914;2023-11-21T05:55:30;3.60;;;3.40;;
16197;SDS011;8206;51.440;6.914;2023-11-21T05:57:57;4.83;;;3.27;;
16197;SDS011;8206;51.440;6.914;2023-11-21T06:00:23;4.97;;;2.57;;
16197;SDS011;8206;51.440;6.914;2023-11-21T06:02:52;2.63;;;2.43;;
16197;SDS011;8206;51.440;6.914;2023-11-21T06:05:19;2.80;;;2.67;;
16197;SDS011;8206;51.440;6.914;2023-11-21T06:07:49;3.83;;;3.47;;
16197;SDS011;8206;51.440;6.914;2023-11-21T06:10:16;9.23;;;4.53;;
16197;SDS011;8206;51.440;6.914;2023-11-21T06:12:44;7.37;;;3.30;;
16197;SDS011;8206;51.440;6.914;2023-11-21T06:15:11;6.80;;;3.77;;
16197;SDS011;8206;51.440;6.914;2023-11-21T06:17:39;4.33;;;4.03;;
16197;SDS011;8206;51.440;6.914;2023-11-21T06:20:07;4.53;;;3.20;;
16197;SDS011;8206;51.440;6.914;2023-11-21T06:22:39;8.03;;;2.23;;
16197;SDS011;8206;51.440;6.914;2023-11-21T06:25:09;7.13;;;5.10;;
16197;SDS011;8206;51.440;6.914;2023-11-21T06:27:38;4.10;;;3.80;;
16197;SDS011;8206;51.440;6.914;2023-11-21T06:30:06;14.13;;;3.10;;
16197;SDS011;8206;51.440;6.914;2023-11-21T06:32:34;6.80;;;3.80;;
16197;SDS011;8206;51.440;6.914;2023-11-21T06:35:02;5.13;;;4.73;;
16197;SDS011;8206;51.440;6.914;2023-11-21T06:37:29;4.90;;;4.27;;
16197;SDS011;8206;51.440;6.914;2023-11-21T06:39:57;8.33;;;3.77;;
16197;SDS011;8206;51.440;6.914;2023-11-21T06:42:26;4.70;;;3.50;;
16197;SDS011;8206;51.440;6.914;2023-11-21T06:44:54;6.17;;;4.97;;
16197;SDS011;8206;51.440;6.914;2023-11-21T06:47:22;4.63;;;4.03;;
16197;SDS011;8206;51.440;6.914;2023-11-21T06:49:50;5.87;;;5.00;;
16197;SDS011;8206;51.440;6.914;2023-11-21T06:52:17;4.60;;;4.30;;
16197;SDS011;8206;51.440;6.914;2023-11-21T06:54:44;3.23;;;3.00;;
16197;SDS011;8206;51.440;6.914;2023-11-21T06:57:12;9.43;;;5.07;;
16197;SDS011;8206;51.440;6.914;2023-11-21T06:59:40;13.10;;;7.13;;
16197;SDS011;8206;51.440;6.914;2023-11-21T07:02:07;5.47;;;4.47;;
16197;SDS011;8206;51.440;6.914;2023-11-21T07:04:34;8.07;;;6.87;;
16197;SDS011;8206;51.440;6.914;2023-11-21T07:07:01;26.10;;;8.47;;
16197;SDS011;8206;51.440;6.914;2023-11-21T07:09:28;20.13;;;6.50;;
16197;SDS011;8206;51.440;6.914;2023-11-21T07:11:56;16.53;;;7.07;;
16197;SDS011;8206;51.440;6.914;2023-11-21T07:14:22;18.73;;;7.67;;
16197;SDS011;8206;51.440;6.914;2023-11-21T07:16:50;11.33;;;7.97;;
16197;SDS011;8206;51.440;6.914;2023-11-21T07:19:17;6.40;;;5.53;;
16197;SDS011;8206;51.440;6.914;2023-11-21T07:21:44;23.53;;;7.53;;
16197;SDS011;8206;51.440;6.914;2023-11-21T07:24:11;13.70;;;8.47;;
16197;SDS011;8206;51.440;6.914;2023-11-21T07:26:38;7.33;;;6.83;;
16197;SDS011;8206;51.440;6.914;2023-11-21T07:29:04;15.13;;;9.87;;
16197;SDS011;8206;51.440;6.914;2023-11-21T07:31:32;9.60;;;8.60;;
16197;SDS011;8206;51.440;6.914;2023-11-21T07:34:01;19.73;;;11.60;;
16197;SDS011;8206;51.440;6.914;2023-11-21T07:36:28;12.47;;;8.87;;
16197;SDS011;8206;51.440;6.914;2023-11-21T07:38:54;11.73;;;9.60;;
16197;SDS011;8206;51.440;6.914;2023-11-21T07:41:21;7.30;;;6.57;;
16197;SDS011;8206;51.440;6.914;2023-11-21T07:43:48;11.17;;;8.37;;
16197;SDS011;8206;51.440;6.914;2023-11-21T07:46:14;26.37;;;9.83;;
16197;SDS011;8206;51.440;6.914;2023-11-21T07:48:41;16.20;;;11.20;;
16197;SDS011;8206;51.440;6.914;2023-11-21T07:51:10;12.70;;;10.03;;
16197;SDS011;8206;51.440;6.914;2023-11-21T07:53:38;8.53;;;7.67;;
16197;SDS011;8206;51.440;6.914;2023-11-21T07:56:05;17.57;;;11.13;;
16197;SDS011;8206;51.440;6.914;2023-11-21T07:58:33;34.67;;;11.67;;
16197;SDS011;8206;51.440;6.914;2023-11-21T08:01:00;18.27;;;12.67;;
16197;SDS011;8206;51.440;6.914;2023-11-21T08:03:27;18.10;;;10.87;;
16197;SDS011;8206;51.440;6.914;2023-11-21T08:05:55;14.07;;;11.07;;
16197;SDS011;8206;51.440;6.914;2023-11-21T08:08:23;29.03;;;13.60;;
16197;SDS011;8206;51.440;6.914;2023-11-21T08:10:50;39.90;;;13.93;;
16197;SDS011;8206;51.440;6.914;2023-11-21T08:13:21;18.53;;;14.17;;
16197;SDS011;8206;51.440;6.914;2023-11-21T08:15:48;28.20;;;16.47;;
16197;SDS011;8206;51.440;6.914;2023-11-21T08:18:15;30.03;;;13.47;;
16197;SDS011;8206;51.440;6.914;2023-11-21T08:20:42;22.67;;;12.20;;
16197;SDS011;8206;51.440;6.914;2023-11-21T08:23:12;10.37;;;9.23;;
16197;SDS011;8206;51.440;6.914;2023-11-21T08:25:41;14.03;;;12.57;;
16197;SDS011;8206;51.440;6.914;2023-11-21T08:28:08;16.33;;;9.83;;
16197;SDS011;8206;51.440;6.914;2023-11-21T08:30:35;33.97;;;16.17;;
16197;SDS011;8206;51.440;6.914;2023-11-21T08:33:02;12.33;;;9.03;;
16197;SDS011;8206;51.440;6.914;2023-11-21T08:35:29;21.40;;;13.23;;
16197;SDS011;8206;51.440;6.914;2023-11-21T08:37:56;25.73;;;12.67;;
16197;SDS011;8206;51.440;6.914;2023-11-21T08:40:22;26.00;;;10.70;;
16197;SDS011;8206;51.440;6.914;2023-11-21T08:42:51;21.07;;;9.37;;
16197;SDS011;8206;51.440;6.914;2023-11-21T08:45:18;15.83;;;13.17;;
16197;SDS011;8206;51.440;6.914;2023-11-21T08:47:46;33.73;;;15.93;;
16197;SDS011;8206;51.440;6.914;2023-11-21T08:50:12;14.73;;;13.13;;
16197;SDS011;8206;51.440;6.914;2023-11-21T08:52:40;17.43;;;10.90;;
16197;SDS011;8206;51.440;6.914;2023-11-21T08:55:07;24.50;;;12.20;;
16197;SDS011;8206;51.440;6.914;2023-11-21T08:57:37;27.43;;;13.40;;
16197;SDS011;8206;51.440;6.914;2023-11-21T09:00:07;22.23;;;12.73;;
16197;SDS011;8206;51.440;6.914;2023-11-21T09:02:36;16.10;;;12.20;;
16197;SDS011;8206;51.440;6.914;2023-11-21T09:05:03;15.90;;;12.53;;
16197;SDS011;8206;51.440;6.914;2023-11-21T09:07:31;29.10;;;12.23;;
16197;SDS011;8206;51.440;6.914;2023-11-21T09:09:57;27.40;;;13.17;;
16197;SDS011;8206;51.440;6.914;2023-11-21T09:12:24;40.60;;;14.50;;
16197;SDS011;8206;51.440;6.914;2023-11-21T09:14:51;18.47;;;10.63;;
16197;SDS011;8206;51.440;6.914;2023-11-21T09:17:19;24.17;;;13.03;;
16197;SDS011;8206;51.440;6.914;2023-11-21T09:19:46;16.20;;;10.33;;
16197;SDS011;8206;51.440;6.914;2023-11-21T09:22:16;25.17;;;11.67;;
16197;SDS011;8206;51.440;6.914;2023-11-21T09:24:42;15.33;;;13.70;;
16197;SDS011;8206;51.440;6.914;2023-11-21T09:27:09;29.13;;;12.17;;
16197;SDS011;8206;51.440;6.914;2023-11-21T09:29:36;54.47;;;17.60;;
16197;SDS011;8206;51.440;6.914;2023-11-21T09:32:03;31.70;;;11.73;;
16197;SDS011;8206;51.440;6.914;2023-11-21T09:34:32;32.17;;;14.50;;
16197;SDS011;8206;51.440;6.914;2023-11-21T09:37:01;48.07;;;16.33;;
16197;SDS011;8206;51.440;6.914;2023-11-21T09:39:30;18.23;;;13.37;;
16197;SDS011;8206;51.440;6.914;2023-11-21T09:41:59;24.90;;;13.77;;
16197;SDS011;8206;51.440;6.914;2023-11-21T09:44:35;43.17;;;13.57;;
16197;SDS011;8206;51.440;6.914;2023-11-21T09:47:14;20.83;;;13.07;;
16197;SDS011;8206;51.440;6.914;2023-11-21T09:49:43;20.17;;;14.77;;
16197;SDS011;8206;51.440;6.914;2023-11-21T09:52:15;13.53;;;10.30;;
16197;SDS011;8206;51.440;6.914;2023-11-21T09:54:51;23.97;;;13.50;;
16197;SDS011;8206;51.440;6.914;2023-11-21T09:57:19;16.57;;;12.77;;
16197;SDS011;8206;51.440;6.914;2023-11-21T09:59:48;19.60;;;12.87;;
16197;SDS011;8206;51.440;6.914;2023-11-21T10:02:17;22.93;;;8.23;;
16197;SDS011;8206;51.440;6.914;2023-11-21T10:04:47;18.93;;;11.03;;
16197;SDS011;8206;51.440;6.914;2023-11-21T10:07:14;15.63;;;10.27;;
16197;SDS011;8206;51.440;6.914;2023-11-21T10:09:43;39.10;;;16.43;;
16197;SDS011;8206;51.440;6.914;2023-11-21T10:12:10;18.37;;;11.33;;
16197;SDS011;8206;51.440;6.914;2023-11-21T10:14:41;24.83;;;9.87;;
16197;SDS011;8206;51.440;6.914;2023-11-21T10:17:08;31.03;;;15.67;;
16197;SDS011;8206;51.440;6.914;2023-11-21T10:19:38;13.57;;;10.90;;
16197;SDS011;8206;51.440;6.914;2023-11-21T10:22:06;11.83;;;10.33;;
16197;SDS011;8206;51.440;6.914;2023-11-21T10:24:34;52.17;;;15.20;;
16197;SDS011;8206;51.440;6.914;2023-11-21T10:27:01;31.03;;;13.27;;
16197;SDS011;8206;51.440;6.914;2023-11-21T10:29:29;21.57;;;12.23;;
16197;SDS011;8206;51.440;6.914;2023-11-21T10:31:56;15.13;;;12.03;;
16197;SDS011;8206;51.440;6.914;2023-11-21T10:34:24;20.67;;;15.00;;
16197;SDS011;8206;51.440;6.914;2023-11-21T10:36:52;18.87;;;14.20;;
16197;SDS011;8206;51.440;6.914;2023-11-21T10:39:23;20.23;;;13.93;;
16197;SDS011;8206;51.440;6.914;2023-11-21T10:41:54;18.97;;;11.87;;
16197;SDS011;8206;51.440;6.914;2023-11-21T10:44:21;16.93;;;11.27;;
16197;SDS011;8206;51.440;6.914;2023-11-21T10:46:49;19.57;;;10.17;;
16197;SDS011;8206;51.440;6.914;2023-11-21T10:49:17;36.03;;;12.70;;
16197;SDS011;8206;51.440;6.914;2023-11-21T10:51:44;19.93;;;13.77;;
16197;SDS011;8206;51.440;6.914;2023-11-21T10:54:16;20.33;;;11.90;;
16197;SDS011;8206;51.440;6.914;2023-11-21T10:56:45;23.90;;;10.37;;
16197;SDS011;8206;51.440;6.914;2023-11-21T10:59:13;14.90;;;12.17;;
16197;SDS011;8206;51.440;6.914;2023-11-21T11:01:41;13.60;;;10.67;;
16197;SDS011;8206;51.440;6.914;2023-11-21T11:04:11;30.73;;;12.20;;
16197;SDS011;8206;51.440;6.914;2023-11-21T11:06:41;17.83;;;13.37;;
16197;SDS011;8206;51.440;6.914;2023-11-21T11:09:09;9.83;;;8.83;;
16197;SDS011;8206;51.440;6.914;2023-11-21T11:11:39;28.47;;;11.90;;
16197;SDS011;8206;51.440;6.914;2023-11-21T11:14:07;23.33;;;11.80;;
16197;SDS011;8206;51.440;6.914;2023-11-21T11:16:36;12.03;;;10.77;;
16197;SDS011;8206;51.440;6.914;2023-11-21T11:19:06;10.67;;;8.20;;
16197;SDS011;8206;51.440;6.914;2023-11-21T11:21:36;11.40;;;10.27;;
16197;SDS011;8206;51.440;6.914;2023-11-21T11:24:17;14.47;;;11.77;;
16197;SDS011;8206;51.440;6.914;2023-11-21T11:27:10;10.73;;;8.93;;
16197;SDS011;8206;51.440;6.914;2023-11-21T11:29:51;12.20;;;8.97;;
16197;SDS011;8206;51.440;6.914;2023-11-21T11:32:30;17.67;;;7.43;;
16197;SDS011;8206;51.440;6.914;2023-11-21T11:35:07;12.83;;;8.63;;
16197;SDS011;8206;51.440;6.914;2023-11-21T11:37:41;20.40;;;10.03;;
16197;SDS011;8206;51.440;6.914;2023-11-21T11:40:10;28.03;;;9.33;;
16197;SDS011;8206;51.440;6.914;2023-11-21T11:42:37;9.30;;;7.97;;
16197;SDS011;8206;51.440;6.914;2023-11-21T11:45:18;15.33;;;9.50;;
16197;SDS011;8206;51.440;6.914;2023-11-21T11:47:45;20.23;;;10.17;;
16197;SDS011;8206;51.440;6.914;2023-11-21T11:50:14;9.57;;;8.73;;
16197;SDS011;8206;51.440;6.914;2023-11-21T11:52:42;7.40;;;6.80;;
16197;SDS011;8206;51.440;6.914;2023-11-21T11:55:10;25.53;;;7.97;;
16197;SDS011;8206;51.440;6.914;2023-11-21T11:57:38;9.83;;;7.93;;
16197;SDS011;8206;51.440;6.914;2023-11-21T12:00:10;9.70;;;6.53;;
16197;SDS011;8206;51.440;6.914;2023-11-21T12:02:47;8.13;;;5.53;;
16197;SDS011;8206;51.440;6.914;2023-11-21T12:05:15;13.93;;;8.20;;
16197;SDS011;8206;51.440;6.914;2023-11-21T12:07:47;6.50;;;5.90;;
16197;SDS011;8206;51.440;6.914;2023-11-21T12:10:19;11.00;;;7.83;;
16197;SDS011;8206;51.440;6.914;2023-11-21T12:12:48;9.13;;;6.40;;
16197;SDS011;8206;51.440;6.914;2023-11-21T12:15:17;6.40;;;5.73;;
16197;SDS011;8206;51.440;6.914;2023-11-21T12:17:45;6.40;;;4.87;;
16197;SDS011;8206;51.440;6.914;2023-11-21T12:20:14;6.30;;;4.47;;
16197;SDS011;8206;51.440;6.914;2023-11-21T12:22:45;9.20;;;4.60;;
16197;SDS011;8206;51.440;6.914;2023-11-21T12:25:14;11.73;;;3.57;;
16197;SDS011;8206;51.440;6.914;2023-11-21T12:27:43;17.67;;;5.80;;
16197;SDS011;8206;51.440;6.914;2023-11-21T12:30:11;17.20;;;6.30;;
16197;SDS011;8206;51.440;6.914;2023-11-21T12:32:40;5.10;;;4.80;;
16197;SDS011;8206;51.440;6.914;2023-11-21T12:35:09;4.50;;;4.13;;
16197;SDS011;8206;51.440;6.914;2023-11-21T12:37:36;12.73;;;5.87;;
16197;SDS011;8206;51.440;6.914;2023-11-21T12:40:05;7.87;;;5.23;;
16197;SDS011;8206;51.440;6.914;2023-11-21T12:42:33;8.27;;;6.87;;
16197;SDS011;8206;51.440;6.914;2023-11-21T12:45:07;8.20;;;5.20;;
16197;SDS011;8206;51.440;6.914;2023-11-21T12:47:39;13.20;;;5.33;;
16197;SDS011;8206;51.440;6.914;2023-11-21T12:50:06;4.63;;;3.90;;
16197;SDS011;8206;51.440;6.914;2023-11-21T12:52:40;6.63;;;3.97;;
16197;SDS011;8206;51.440;6.914;2023-11-21T12:55:16;5.70;;;4.53;;
16197;SDS011;8206;51.440;6.914;2023-11-21T12:57:43;4.37;;;4.00;;
16197;SDS011;8206;51.440;6.914;2023-11-21T13:00:11;6.60;;;3.50;;
16197;SDS011;8206;51.440;6.914;2023-11-21T13:02:50;5.47;;;4.90;;
16197;SDS011;8206;51.440;6.914;2023-11-21T13:05:24;6.00;;;5.47;;
16197;SDS011;8206;51.440;6.914;2023-11-21T13:07:55;12.40;;;6.80;;
16197;SDS011;8206;51.440;6.914;2023-11-21T13:10:23;5.27;;;4.77;;
16197;SDS011;8206;51.440;6.914;2023-11-21T13:12:54;7.70;;;4.33;;
16197;SDS011;8206;51.440;6.914;2023-11-21T13:15:23;8.23;;;5.47;;
16197;SDS011;8206;51.440;6.914;2023-11-21T13:17:50;6.70;;;5.27;;
16197;SDS011;8206;51.440;6.914;2023-11-21T13:20:18;5.00;;;4.57;;
16197;SDS011;8206;51.440;6.914;2023-11-21T13:22:47;9.47;;;6.67;;
16197;SDS011;8206;51.440;6.914;2023-11-21T13:25:15;5.37;;;4.27;;
16197;SDS011;8206;51.440;6.914;2023-11-21T13:27:44;5.37;;;4.87;;
16197;SDS011;8206;51.440;6.914;2023-11-21T13:30:12;7.87;;;6.33;;
16197;SDS011;8206;51.440;6.914;2023-11-21T13:32:44;5.97;;;5.57;;
16197;SDS011;8206;51.440;6.914;2023-11-21T13:35:12;8.20;;;5.30;;
16197;SDS011;8206;51.440;6.914;2023-11-21T13:37:48;5.33;;;4.43;;
16197;SDS011;8206;51.440;6.914;2023-11-21T13:40:19;4.77;;;4.30;;
16197;SDS011;8206;51.440;6.914;2023-11-21T13:42:51;7.30;;;4.60;;
16197;SDS011;8206;51.440;6.914;2023-11-21T13:45:19;3.73;;;3.43;;
16197;SDS011;8206;51.440;6.914;2023-11-21T13:47:48;4.17;;;3.37;;
16197;SDS011;8206;51.440;6.914;2023-11-21T13:50:16;3.10;;;2.90;;
16197;SDS011;8206;51.440;6.914;2023-11-21T13:52:49;8.53;;;3.83;;
16197;SDS011;8206;51.440;6.914;2023-11-21T13:55:18;2.27;;;2.10;;
16197;SDS011;8206;51.440;6.914;2023-11-21T13:57:45;3.43;;;3.23;;
16197;SDS011;8206;51.440;6.914;2023-11-21T14:00:15;3.47;;;3.17;;
16197;SDS011;8206;51.440;6.914;2023-11-21T14:03:06;3.60;;;3.40;;
16197;SDS011;8206;51.440;6.914;2023-11-21T14:05:41;4.37;;;4.03;;
16197;SDS011;8206;51.440;6.914;2023-11-21T14:08:09;5.13;;;4.67;;
16197;SDS011;8206;51.440;6.914;2023-11-21T14:10:41;4.33;;;3.57;;
16197;SDS011;8206;51.440;6.914;2023-11-21T14:13:09;3.27;;;2.97;;
16197;SDS011;8206;51.440;6.914;2023-11-21T14:15:37;2.73;;;2.53;;
16197;SDS011;8206;51.440;6.914;2023-11-21T14:18:07;6.30;;;4.23;;
16197;SDS011;8206;51.440;6.914;2023-11-21T14:20:36;4.43;;;3.83;;
16197;SDS011;8206;51.440;6.914;2023-11-21T14:23:03;6.43;;;5.27;;
16197;SDS011;8206;51.440;6.914;2023-11-21T14:25:32;7.67;;;3.87;;
16197;SDS011;8206;51.440;6.914;2023-11-21T14:28:01;11.07;;;7.03;;
16197;SDS011;8206;51.440;6.914;2023-11-21T14:30:29;11.10;;;5.20;;
16197;SDS011;8206;51.440;6.914;2023-11-21T14:32:58;4.23;;;3.40;;
16197;SDS011;8206;51.440;6.914;2023-11-21T14:35:25;3.83;;;3.50;;
16197;SDS011;8206;51.440;6.914;2023-11-21T14:37:52;4.70;;;4.33;;
16197;SDS011;8206;51.440;6.914;2023-11-21T14:40:20;5.17;;;4.67;;
16197;SDS011;8206;51.440;6.914;2023-11-21T14:42:51;5.77;;;4.80;;
16197;SDS011;8206;51.440;6.914;2023-11-21T14:45:19;13.70;;;6.43;;
16197;SDS011;8206;51.440;6.914;2023-11-21T14:47:47;3.87;;;3.53;;
16197;SDS011;8206;51.440;6.914;2023-11-21T14:50:22;3.67;;;2.03;;
16197;SDS011;8206;51.440;6.914;2023-11-21T14:53:13;3.83;;;3.50;;
16197;SDS011;8206;51.440;6.914;2023-11-21T14:55:39;4.90;;;4.40;;
16197;SDS011;8206;51.440;6.914;2023-11-21T14:58:20;4.70;;;3.23;;
16197;SDS011;8206;51.440;6.914;2023-11-21T15:00:52;4.73;;;3.80;;